sensor_id;sensor_type;location;lat;lon;timestamp;temperature;humidity
13256;DHT22;37913;48.370;10.930;2022-08-05T00:02:12;20.50;99.90
13256;DHT22;37913;48.370;10.930;2022-08-05T00:04:40;20.50;99.90
13256;DHT22;37913;48.370;10.930;2022-08-05T00:07:07;20.40;99.90
13256;DHT22;37913;48.370;10.930;2022-08-05T00:09:34;20.40;99.90
13256;DHT22;37913;48.370;10.930;2022-08-05T00:12:03;20.40;99.90
13256;DHT22;37913;48.370;10.930;2022-08-05T00:14:30;20.30;99.90
13256;DHT22;37913;48.370;10.930;2022-08-05T00:16:58;20.30;99.90
13256;DHT22;37913;48.370;10.930;2022-08-05T00:19:26;20.20;99.90
13256;DHT22;37913;48.370;10.930;2022-08-05T00:21:53;20.20;99.90
13256;DHT22;37913;48.370;10.930;2022-08-05T00:24:21;20.20;99.90
13256;DHT22;37913;48.370;10.930;2022-08-05T00:26:48;20.20;99.90
13256;DHT22;37913;48.370;10.930;2022-08-05T00:29:15;20.20;99.90
13256;DHT22;37913;48.370;10.930;2022-08-05T00:31:41;20.10;99.90
13256;DHT22;37913;48.370;10.930;2022-08-05T00:34:09;20.00;99.90
13256;DHT22;37913;48.370;10.930;2022-08-05T00:36:37;20.00;99.90
13256;DHT22;37913;48.370;10.930;2022-08-05T00:39:04;20.00;99.90
13256;DHT22;37913;48.370;10.930;2022-08-05T00:41:33;20.00;99.90
13256;DHT22;37913;48.370;10.930;2022-08-05T00:44:00;19.90;99.90
13256;DHT22;37913;48.370;10.930;2022-08-05T00:46:27;20.00;99.90
13256;DHT22;37913;48.370;10.930;2022-08-05T00:48:54;20.10;99.90
13256;DHT22;37913;48.370;10.930;2022-08-05T00:51:22;20.10;99.90
13256;DHT22;37913;48.370;10.930;2022-08-05T00:53:50;20.10;99.90
13256;DHT22;37913;48.370;10.930;2022-08-05T00:56:17;20.00;99.90
13256;DHT22;37913;48.370;10.930;2022-08-05T00:58:44;19.90;99.90
13256;DHT22;37913;48.370;10.930;2022-08-05T01:01:12;19.90;99.90
13256;DHT22;37913;48.370;10.930;2022-08-05T01:03:40;19.80;99.90
13256;DHT22;37913;48.370;10.930;2022-08-05T01:06:08;19.70;99.90
13256;DHT22;37913;48.370;10.930;2022-08-05T01:08:35;19.60;99.90
13256;DHT22;37913;48.370;10.930;2022-08-05T01:11:08;19.70;99.90
13256;DHT22;37913;48.370;10.930;2022-08-05T01:13:44;19.80;99.90
13256;DHT22;37913;48.370;10.930;2022-08-05T01:16:19;19.80;99.90
13256;DHT22;37913;48.370;10.930;2022-08-05T01:18:49;19.70;99.90
13256;DHT22;37913;48.370;10.930;2022-08-05T01:21:33;19.80;99.90
13256;DHT22;37913;48.370;10.930;2022-08-05T01:24:12;19.90;99.90
13256;DHT22;37913;48.370;10.930;2022-08-05T01:26:58;19.90;99.90
13256;DHT22;37913;48.370;10.930;2022-08-05T01:29:31;19.90;99.90
13256;DHT22;37913;48.370;10.930;2022-08-05T01:32:03;20.00;1.00
13256;DHT22;37913;48.370;10.930;2022-08-05T01:34:36;19.90;1.00
13256;DHT22;37913;48.370;10.930;2022-08-05T01:37:08;19.90;1.00
13256;DHT22;37913;48.370;10.930;2022-08-05T01:39:39;19.90;1.00
13256;DHT22;37913;48.370;10.930;2022-08-05T01:42:11;19.90;1.00
13256;DHT22;37913;48.370;10.930;2022-08-05T01:44:40;19.80;1.00
13256;DHT22;37913;48.370;10.930;2022-08-05T01:47:09;19.70;1.00
13256;DHT22;37913;48.370;10.930;2022-08-05T01:49:39;19.50;1.00
13256;DHT22;37913;48.370;10.930;2022-08-05T01:52:08;19.50;1.00
13256;DHT22;37913;48.370;10.930;2022-08-05T01:54:40;19.50;1.00
13256;DHT22;37913;48.370;10.930;2022-08-05T01:57:07;19.40;1.00
13256;DHT22;37913;48.370;10.930;2022-08-05T01:59:36;19.40;99.90
13256;DHT22;37913;48.370;10.930;2022-08-05T02:02:06;19.30;97.10
13256;DHT22;37913;48.370;10.930;2022-08-05T02:04:37;19.30;99.90
13256;DHT22;37913;48.370;10.930;2022-08-05T02:07:06;19.20;99.90
13256;DHT22;37913;48.370;10.930;2022-08-05T02:09:33;19.10;99.90
13256;DHT22;37913;48.370;10.930;2022-08-05T02:12:04;19.00;99.90
13256;DHT22;37913;48.370;10.930;2022-08-05T02:14:36;19.00;99.90
13256;DHT22;37913;48.370;10.930;2022-08-05T02:17:10;19.00;99.90
13256;DHT22;37913;48.370;10.930;2022-08-05T02:19:43;19.00;99.90
13256;DHT22;37913;48.370;10.930;2022-08-05T02:22:16;19.10;99.90
13256;DHT22;37913;48.370;10.930;2022-08-05T02:24:46;19.30;99.90
13256;DHT22;37913;48.370;10.930;2022-08-05T02:27:14;19.40;99.90
13256;DHT22;37913;48.370;10.930;2022-08-05T02:29:43;19.40;99.90
13256;DHT22;37913;48.370;10.930;2022-08-05T02:32:12;19.40;99.90
13256;DHT22;37913;48.370;10.930;2022-08-05T02:34:41;19.50;99.90
13256;DHT22;37913;48.370;10.930;2022-08-05T02:37:09;19.40;99.90
13256;DHT22;37913;48.370;10.930;2022-08-05T02:39:38;19.30;99.90
13256;DHT22;37913;48.370;10.930;2022-08-05T02:42:06;19.20;99.90
13256;DHT22;37913;48.370;10.930;2022-08-05T02:44:36;19.10;99.90
13256;DHT22;37913;48.370;10.930;2022-08-05T02:47:05;19.00;99.90
13256;DHT22;37913;48.370;10.930;2022-08-05T02:49:36;19.00;99.90
13256;DHT22;37913;48.370;10.930;2022-08-05T02:52:06;19.00;99.90
13256;DHT22;37913;48.370;10.930;2022-08-05T02:54:34;18.90;99.90
13256;DHT22;37913;48.370;10.930;2022-08-05T02:57:02;18.90;99.90
13256;DHT22;37913;48.370;10.930;2022-08-05T02:59:30;18.90;99.90
13256;DHT22;37913;48.370;10.930;2022-08-05T03:01:58;18.90;99.90
13256;DHT22;37913;48.370;10.930;2022-08-05T03:04:26;19.00;99.90
13256;DHT22;37913;48.370;10.930;2022-08-05T03:06:57;19.00;99.90
13256;DHT22;37913;48.370;10.930;2022-08-05T03:09:24;19.00;99.90
13256;DHT22;37913;48.370;10.930;2022-08-05T03:11:51;19.00;99.90
13256;DHT22;37913;48.370;10.930;2022-08-05T03:14:19;19.00;1.00
13256;DHT22;37913;48.370;10.930;2022-08-05T03:16:46;18.90;1.00
13256;DHT22;37913;48.370;10.930;2022-08-05T03:19:13;18.90;1.00
13256;DHT22;37913;48.370;10.930;2022-08-05T03:21:40;18.70;1.00
13256;DHT22;37913;48.370;10.930;2022-08-05T03:24:09;18.60;1.00
13256;DHT22;37913;48.370;10.930;2022-08-05T03:26:36;18.60;1.00
13256;DHT22;37913;48.370;10.930;2022-08-05T03:29:03;18.60;1.00
13256;DHT22;37913;48.370;10.930;2022-08-05T03:31:31;18.50;1.00
13256;DHT22;37913;48.370;10.930;2022-08-05T03:33:58;18.50;1.00
13256;DHT22;37913;48.370;10.930;2022-08-05T03:36:25;18.40;1.00
13256;DHT22;37913;48.370;10.930;2022-08-05T03:38:52;18.50;1.00
13256;DHT22;37913;48.370;10.930;2022-08-05T03:41:20;18.50;1.00
13256;DHT22;37913;48.370;10.930;2022-08-05T03:43:47;18.60;1.00
13256;DHT22;37913;48.370;10.930;2022-08-05T03:46:15;18.70;1.00
13256;DHT22;37913;48.370;10.930;2022-08-05T03:48:41;18.90;1.00
13256;DHT22;37913;48.370;10.930;2022-08-05T03:51:12;19.10;1.00
13256;DHT22;37913;48.370;10.930;2022-08-05T03:53:46;19.20;1.00
13256;DHT22;37913;48.370;10.930;2022-08-05T03:56:21;19.40;1.00
13256;DHT22;37913;48.370;10.930;2022-08-05T03:58:52;19.40;1.00
13256;DHT22;37913;48.370;10.930;2022-08-05T04:01:21;19.30;1.00
13256;DHT22;37913;48.370;10.930;2022-08-05T04:03:49;19.40;1.00
13256;DHT22;37913;48.370;10.930;2022-08-05T04:06:18;19.40;1.00
13256;DHT22;37913;48.370;10.930;2022-08-05T04:08:45;19.40;1.00
13256;DHT22;37913;48.370;10.930;2022-08-05T04:11:13;19.50;1.00
13256;DHT22;37913;48.370;10.930;2022-08-05T04:13:42;19.50;1.00
13256;DHT22;37913;48.370;10.930;2022-08-05T04:16:12;19.50;1.00
13256;DHT22;37913;48.370;10.930;2022-08-05T04:18:39;19.50;1.00
13256;DHT22;37913;48.370;10.930;2022-08-05T04:21:06;19.60;1.00
13256;DHT22;37913;48.370;10.930;2022-08-05T04:23:35;19.60;1.00
13256;DHT22;37913;48.370;10.930;2022-08-05T04:26:03;19.70;1.00
13256;DHT22;37913;48.370;10.930;2022-08-05T04:28:30;19.70;1.00
13256;DHT22;37913;48.370;10.930;2022-08-05T04:30:57;19.80;1.00
13256;DHT22;37913;48.370;10.930;2022-08-05T04:33:26;19.90;1.00
13256;DHT22;37913;48.370;10.930;2022-08-05T04:35:53;20.00;99.90
13256;DHT22;37913;48.370;10.930;2022-08-05T04:38:20;20.10;99.90
13256;DHT22;37913;48.370;10.930;2022-08-05T04:40:47;20.20;99.90
13256;DHT22;37913;48.370;10.930;2022-08-05T04:43:14;20.30;99.90
13256;DHT22;37913;48.370;10.930;2022-08-05T04:45:41;20.50;99.90
13256;DHT22;37913;48.370;10.930;2022-08-05T04:48:09;20.70;99.90
13256;DHT22;37913;48.370;10.930;2022-08-05T04:50:42;20.90;13.90
13256;DHT22;37913;48.370;10.930;2022-08-05T04:53:10;21.10;1.00
13256;DHT22;37913;48.370;10.930;2022-08-05T04:55:37;21.30;1.00
13256;DHT22;37913;48.370;10.930;2022-08-05T04:58:05;21.60;99.90
13256;DHT22;37913;48.370;10.930;2022-08-05T05:00:33;21.80;1.00
13256;DHT22;37913;48.370;10.930;2022-08-05T05:03:00;22.10;99.90
13256;DHT22;37913;48.370;10.930;2022-08-05T05:05:28;22.30;1.00
13256;DHT22;37913;48.370;10.930;2022-08-05T05:07:59;22.60;1.00
13256;DHT22;37913;48.370;10.930;2022-08-05T05:10:27;23.00;99.90
13256;DHT22;37913;48.370;10.930;2022-08-05T05:12:54;23.20;99.90
13256;DHT22;37913;48.370;10.930;2022-08-05T05:15:21;23.40;1.00
13256;DHT22;37913;48.370;10.930;2022-08-05T05:17:47;23.60;1.00
13256;DHT22;37913;48.370;10.930;2022-08-05T05:20:14;23.70;99.90
13256;DHT22;37913;48.370;10.930;2022-08-05T05:22:41;23.60;1.00
13256;DHT22;37913;48.370;10.930;2022-08-05T05:25:10;23.60;1.00
13256;DHT22;37913;48.370;10.930;2022-08-05T05:27:38;23.90;99.90
13256;DHT22;37913;48.370;10.930;2022-08-05T05:30:06;24.20;1.00
13256;DHT22;37913;48.370;10.930;2022-08-05T05:32:33;24.90;99.90
13256;DHT22;37913;48.370;10.930;2022-08-05T05:34:59;25.60;1.00
13256;DHT22;37913;48.370;10.930;2022-08-05T05:37:26;26.20;1.00
13256;DHT22;37913;48.370;10.930;2022-08-05T05:39:53;26.80;1.00
13256;DHT22;37913;48.370;10.930;2022-08-05T05:42:22;27.00;99.90
13256;DHT22;37913;48.370;10.930;2022-08-05T05:44:48;26.80;99.90
13256;DHT22;37913;48.370;10.930;2022-08-05T05:47:15;26.40;99.90
13256;DHT22;37913;48.370;10.930;2022-08-05T05:49:42;26.00;99.90
13256;DHT22;37913;48.370;10.930;2022-08-05T05:52:09;25.70;99.90
13256;DHT22;37913;48.370;10.930;2022-08-05T05:54:36;25.50;99.90
13256;DHT22;37913;48.370;10.930;2022-08-05T05:57:03;25.50;99.90
13256;DHT22;37913;48.370;10.930;2022-08-05T05:59:32;25.50;99.90
13256;DHT22;37913;48.370;10.930;2022-08-05T06:01:58;25.90;99.90
13256;DHT22;37913;48.370;10.930;2022-08-05T06:04:25;26.90;99.90
13256;DHT22;37913;48.370;10.930;2022-08-05T06:06:52;27.30;99.90
13256;DHT22;37913;48.370;10.930;2022-08-05T06:09:19;27.40;99.90
13256;DHT22;37913;48.370;10.930;2022-08-05T06:11:46;27.30;99.90
13256;DHT22;37913;48.370;10.930;2022-08-05T06:14:13;27.20;99.90
13256;DHT22;37913;48.370;10.930;2022-08-05T06:16:41;27.00;99.90
13256;DHT22;37913;48.370;10.930;2022-08-05T06:19:08;26.70;99.90
13256;DHT22;37913;48.370;10.930;2022-08-05T06:21:36;26.50;99.90
13256;DHT22;37913;48.370;10.930;2022-08-05T06:24:04;26.30;99.90
13256;DHT22;37913;48.370;10.930;2022-08-05T06:26:31;26.30;99.90
13256;DHT22;37913;48.370;10.930;2022-08-05T06:28:58;27.40;99.90
13256;DHT22;37913;48.370;10.930;2022-08-05T06:31:25;28.90;99.90
13256;DHT22;37913;48.370;10.930;2022-08-05T06:33:54;29.30;99.90
13256;DHT22;37913;48.370;10.930;2022-08-05T06:36:21;29.20;99.90
13256;DHT22;37913;48.370;10.930;2022-08-05T06:38:48;29.20;99.90
13256;DHT22;37913;48.370;10.930;2022-08-05T06:41:19;29.20;99.90
13256;DHT22;37913;48.370;10.930;2022-08-05T06:43:46;29.50;99.90
13256;DHT22;37913;48.370;10.930;2022-08-05T06:46:13;29.90;99.90
13256;DHT22;37913;48.370;10.930;2022-08-05T06:48:40;30.20;99.90
13256;DHT22;37913;48.370;10.930;2022-08-05T06:51:08;29.70;99.90
13256;DHT22;37913;48.370;10.930;2022-08-05T06:53:35;29.00;99.90
13256;DHT22;37913;48.370;10.930;2022-08-05T06:56:03;28.50;99.90
13256;DHT22;37913;48.370;10.930;2022-08-05T06:58:30;28.20;99.90
13256;DHT22;37913;48.370;10.930;2022-08-05T07:00:57;27.90;99.90
13256;DHT22;37913;48.370;10.930;2022-08-05T07:03:25;27.80;99.90
13256;DHT22;37913;48.370;10.930;2022-08-05T07:05:52;27.60;99.90
13256;DHT22;37913;48.370;10.930;2022-08-05T07:08:20;27.50;99.90
13256;DHT22;37913;48.370;10.930;2022-08-05T07:10:48;27.40;99.90
13256;DHT22;37913;48.370;10.930;2022-08-05T07:13:15;27.30;99.90
13256;DHT22;37913;48.370;10.930;2022-08-05T07:15:59;27.80;99.90
13256;DHT22;37913;48.370;10.930;2022-08-05T07:18:43;29.90;99.90
13256;DHT22;37913;48.370;10.930;2022-08-05T07:21:10;32.00;99.90
13256;DHT22;37913;48.370;10.930;2022-08-05T07:23:38;33.50;99.90
13256;DHT22;37913;48.370;10.930;2022-08-05T07:26:05;34.60;99.90
13256;DHT22;37913;48.370;10.930;2022-08-05T07:28:32;35.10;99.90
13256;DHT22;37913;48.370;10.930;2022-08-05T07:30:59;35.90;99.90
13256;DHT22;37913;48.370;10.930;2022-08-05T07:33:26;36.60;98.50
13256;DHT22;37913;48.370;10.930;2022-08-05T07:35:53;37.30;92.60
13256;DHT22;37913;48.370;10.930;2022-08-05T07:38:20;37.00;73.30
13256;DHT22;37913;48.370;10.930;2022-08-05T07:40:48;35.70;62.50
13256;DHT22;37913;48.370;10.930;2022-08-05T07:43:15;36.40;64.30
13256;DHT22;37913;48.370;10.930;2022-08-05T07:45:43;37.10;56.00
13256;DHT22;37913;48.370;10.930;2022-08-05T07:48:09;36.30;48.90
13256;DHT22;37913;48.370;10.930;2022-08-05T07:50:36;36.80;48.50
13256;DHT22;37913;48.370;10.930;2022-08-05T07:53:05;37.60;44.90
13256;DHT22;37913;48.370;10.930;2022-08-05T07:55:32;36.10;32.90
13256;DHT22;37913;48.370;10.930;2022-08-05T07:58:00;34.70;30.10
13256;DHT22;37913;48.370;10.930;2022-08-05T08:00:27;34.30;30.40
13256;DHT22;37913;48.370;10.930;2022-08-05T08:02:54;34.50;34.90
13256;DHT22;37913;48.370;10.930;2022-08-05T08:05:21;35.50;34.90
13256;DHT22;37913;48.370;10.930;2022-08-05T08:07:48;35.60;31.30
13256;DHT22;37913;48.370;10.930;2022-08-05T08:10:15;34.80;24.60
13256;DHT22;37913;48.370;10.930;2022-08-05T08:12:42;34.30;24.50
13256;DHT22;37913;48.370;10.930;2022-08-05T08:15:10;33.40;22.30
13256;DHT22;37913;48.370;10.930;2022-08-05T08:17:37;33.00;23.90
13256;DHT22;37913;48.370;10.930;2022-08-05T08:20:05;32.70;25.00
13256;DHT22;37913;48.370;10.930;2022-08-05T08:22:32;32.30;24.90
13256;DHT22;37913;48.370;10.930;2022-08-05T08:24:59;32.00;26.40
13256;DHT22;37913;48.370;10.930;2022-08-05T08:27:26;32.60;27.80
13256;DHT22;37913;48.370;10.930;2022-08-05T08:29:55;33.40;32.50
13256;DHT22;37913;48.370;10.930;2022-08-05T08:32:23;34.90;28.40
13256;DHT22;37913;48.370;10.930;2022-08-05T08:34:50;35.20;26.90
13256;DHT22;37913;48.370;10.930;2022-08-05T08:37:17;36.20;27.50
13256;DHT22;37913;48.370;10.930;2022-08-05T08:39:44;37.00;26.30
13256;DHT22;37913;48.370;10.930;2022-08-05T08:42:11;38.90;26.70
13256;DHT22;37913;48.370;10.930;2022-08-05T08:44:40;40.50;20.20
13256;DHT22;37913;48.370;10.930;2022-08-05T08:47:08;40.70;10.10
13256;DHT22;37913;48.370;10.930;2022-08-05T08:49:37;41.10;1.00
13256;DHT22;37913;48.370;10.930;2022-08-05T08:52:11;41.20;1.00
13256;DHT22;37913;48.370;10.930;2022-08-05T08:54:38;42.00;1.00
13256;DHT22;37913;48.370;10.930;2022-08-05T08:57:06;43.30;1.00
13256;DHT22;37913;48.370;10.930;2022-08-05T08:59:33;44.60;1.00
13256;DHT22;37913;48.370;10.930;2022-08-05T09:02:04;45.20;1.00
13256;DHT22;37913;48.370;10.930;2022-08-05T09:04:33;45.80;1.00
13256;DHT22;37913;48.370;10.930;2022-08-05T09:07:04;45.60;1.00
13256;DHT22;37913;48.370;10.930;2022-08-05T09:09:32;45.90;1.00
13256;DHT22;37913;48.370;10.930;2022-08-05T09:11:59;46.50;1.00
13256;DHT22;37913;48.370;10.930;2022-08-05T09:14:27;46.60;1.00
13256;DHT22;37913;48.370;10.930;2022-08-05T09:16:54;47.40;1.00
13256;DHT22;37913;48.370;10.930;2022-08-05T09:19:21;47.70;1.00
13256;DHT22;37913;48.370;10.930;2022-08-05T09:21:48;48.20;1.00
13256;DHT22;37913;48.370;10.930;2022-08-05T09:24:16;47.80;1.00
13256;DHT22;37913;48.370;10.930;2022-08-05T09:26:46;48.30;1.00
13256;DHT22;37913;48.370;10.930;2022-08-05T09:29:14;48.70;1.00
13256;DHT22;37913;48.370;10.930;2022-08-05T09:31:41;49.90;1.00
13256;DHT22;37913;48.370;10.930;2022-08-05T09:34:10;50.50;1.00
13256;DHT22;37913;48.370;10.930;2022-08-05T09:36:40;51.10;1.00
13256;DHT22;37913;48.370;10.930;2022-08-05T09:39:09;51.40;1.00
13256;DHT22;37913;48.370;10.930;2022-08-05T09:41:53;51.30;1.00
13256;DHT22;37913;48.370;10.930;2022-08-05T09:44:33;50.80;1.00
13256;DHT22;37913;48.370;10.930;2022-08-05T09:47:08;51.10;1.00
13256;DHT22;37913;48.370;10.930;2022-08-05T09:49:39;52.10;1.00
13256;DHT22;37913;48.370;10.930;2022-08-05T09:52:22;52.20;1.00
13256;DHT22;37913;48.370;10.930;2022-08-05T09:55:02;53.10;1.00
13256;DHT22;37913;48.370;10.930;2022-08-05T09:57:39;53.00;1.00
13256;DHT22;37913;48.370;10.930;2022-08-05T10:00:10;53.10;1.00
13256;DHT22;37913;48.370;10.930;2022-08-05T10:02:40;53.00;1.00
13256;DHT22;37913;48.370;10.930;2022-08-05T10:05:10;53.70;1.00
13256;DHT22;37913;48.370;10.930;2022-08-05T10:07:45;54.30;1.00
13256;DHT22;37913;48.370;10.930;2022-08-05T10:10:13;54.50;1.00
13256;DHT22;37913;48.370;10.930;2022-08-05T10:12:43;55.10;1.00
13256;DHT22;37913;48.370;10.930;2022-08-05T10:15:31;54.60;1.00
13256;DHT22;37913;48.370;10.930;2022-08-05T10:18:08;55.10;1.00
13256;DHT22;37913;48.370;10.930;2022-08-05T10:20:38;55.80;1.00
13256;DHT22;37913;48.370;10.930;2022-08-05T10:23:06;55.10;1.00
13256;DHT22;37913;48.370;10.930;2022-08-05T10:25:33;55.50;1.00
13256;DHT22;37913;48.370;10.930;2022-08-05T10:28:02;55.40;1.00
13256;DHT22;37913;48.370;10.930;2022-08-05T10:30:29;54.30;1.00
13256;DHT22;37913;48.370;10.930;2022-08-05T10:32:57;53.90;1.00
13256;DHT22;37913;48.370;10.930;2022-08-05T10:35:25;55.00;1.00
13256;DHT22;37913;48.370;10.930;2022-08-05T10:37:53;55.00;1.00
13256;DHT22;37913;48.370;10.930;2022-08-05T10:40:26;54.70;1.00
13256;DHT22;37913;48.370;10.930;2022-08-05T10:43:01;53.50;1.00
13256;DHT22;37913;48.370;10.930;2022-08-05T10:45:30;53.40;1.00
13256;DHT22;37913;48.370;10.930;2022-08-05T10:48:28;53.90;1.00
13256;DHT22;37913;48.370;10.930;2022-08-05T10:51:08;55.50;1.00
13256;DHT22;37913;48.370;10.930;2022-08-05T10:53:37;56.80;1.00
13256;DHT22;37913;48.370;10.930;2022-08-05T10:56:07;56.40;1.00
13256;DHT22;37913;48.370;10.930;2022-08-05T10:58:35;53.90;1.00
13256;DHT22;37913;48.370;10.930;2022-08-05T11:01:12;52.20;1.00
13256;DHT22;37913;48.370;10.930;2022-08-05T11:03:58;50.30;1.00
13256;DHT22;37913;48.370;10.930;2022-08-05T11:06:25;49.70;1.00
13256;DHT22;37913;48.370;10.930;2022-08-05T11:09:13;49.80;1.00
13256;DHT22;37913;48.370;10.930;2022-08-05T11:11:43;51.90;1.00
13256;DHT22;37913;48.370;10.930;2022-08-05T11:14:22;53.90;1.00
13256;DHT22;37913;48.370;10.930;2022-08-05T11:19:46;55.70;1.00
13256;DHT22;37913;48.370;10.930;2022-08-05T11:22:41;56.30;1.00
13256;DHT22;37913;48.370;10.930;2022-08-05T11:25:31;56.90;1.00
13256;DHT22;37913;48.370;10.930;2022-08-05T11:31:18;55.50;1.00
13256;DHT22;37913;48.370;10.930;2022-08-05T11:33:53;56.40;1.00
13256;DHT22;37913;48.370;10.930;2022-08-05T11:36:41;56.40;1.00
13256;DHT22;37913;48.370;10.930;2022-08-05T11:39:12;55.70;1.00
13256;DHT22;37913;48.370;10.930;2022-08-05T11:41:40;54.40;1.00
13256;DHT22;37913;48.370;10.930;2022-08-05T11:44:09;53.80;1.00
13256;DHT22;37913;48.370;10.930;2022-08-05T11:46:40;53.10;1.00
13256;DHT22;37913;48.370;10.930;2022-08-05T11:49:11;54.10;1.00
13256;DHT22;37913;48.370;10.930;2022-08-05T11:51:40;54.10;1.00
13256;DHT22;37913;48.370;10.930;2022-08-05T11:54:10;54.90;1.00
13256;DHT22;37913;48.370;10.930;2022-08-05T11:56:45;54.50;1.00
13256;DHT22;37913;48.370;10.930;2022-08-05T11:59:14;55.90;1.00
13256;DHT22;37913;48.370;10.930;2022-08-05T12:01:56;57.20;1.00
13256;DHT22;37913;48.370;10.930;2022-08-05T12:04:26;58.20;1.00
13256;DHT22;37913;48.370;10.930;2022-08-05T12:06:53;56.70;1.00
13256;DHT22;37913;48.370;10.930;2022-08-05T12:09:23;55.70;1.00
13256;DHT22;37913;48.370;10.930;2022-08-05T12:11:52;52.70;1.00
13256;DHT22;37913;48.370;10.930;2022-08-05T12:14:19;53.00;1.00
13256;DHT22;37913;48.370;10.930;2022-08-05T12:16:46;55.10;1.00
13256;DHT22;37913;48.370;10.930;2022-08-05T12:19:16;55.80;1.00
13256;DHT22;37913;48.370;10.930;2022-08-05T12:21:45;55.50;1.00
13256;DHT22;37913;48.370;10.930;2022-08-05T12:24:14;56.20;1.00
13256;DHT22;37913;48.370;10.930;2022-08-05T12:26:44;55.10;1.00
13256;DHT22;37913;48.370;10.930;2022-08-05T12:29:13;57.00;1.00
13256;DHT22;37913;48.370;10.930;2022-08-05T12:31:44;57.20;1.00
13256;DHT22;37913;48.370;10.930;2022-08-05T12:34:11;57.50;1.00
13256;DHT22;37913;48.370;10.930;2022-08-05T12:36:40;57.80;1.00
13256;DHT22;37913;48.370;10.930;2022-08-05T12:39:08;57.10;1.00
13256;DHT22;37913;48.370;10.930;2022-08-05T12:41:37;57.30;1.00
13256;DHT22;37913;48.370;10.930;2022-08-05T12:44:06;57.00;1.00
13256;DHT22;37913;48.370;10.930;2022-08-05T12:46:34;56.60;1.00
13256;DHT22;37913;48.370;10.930;2022-08-05T12:49:05;55.80;1.00
13256;DHT22;37913;48.370;10.930;2022-08-05T12:51:44;55.90;1.00
13256;DHT22;37913;48.370;10.930;2022-08-05T12:54:17;55.90;1.00
13256;DHT22;37913;48.370;10.930;2022-08-05T12:56:47;55.40;1.00
13256;DHT22;37913;48.370;10.930;2022-08-05T12:59:17;54.80;1.00
13256;DHT22;37913;48.370;10.930;2022-08-05T13:01:53;53.30;1.00
13256;DHT22;37913;48.370;10.930;2022-08-05T13:04:21;52.40;1.00
13256;DHT22;37913;48.370;10.930;2022-08-05T13:06:49;51.60;1.00
13256;DHT22;37913;48.370;10.930;2022-08-05T13:09:16;51.60;1.00
13256;DHT22;37913;48.370;10.930;2022-08-05T13:11:44;51.90;1.00
13256;DHT22;37913;48.370;10.930;2022-08-05T13:14:15;52.00;1.00
13256;DHT22;37913;48.370;10.930;2022-08-05T13:16:52;51.40;1.00
13256;DHT22;37913;48.370;10.930;2022-08-05T13:19:24;50.20;1.00
13256;DHT22;37913;48.370;10.930;2022-08-05T13:21:53;50.60;1.00
13256;DHT22;37913;48.370;10.930;2022-08-05T13:24:21;51.10;1.00
13256;DHT22;37913;48.370;10.930;2022-08-05T13:26:50;51.40;1.00
13256;DHT22;37913;48.370;10.930;2022-08-05T13:29:18;51.20;1.00
13256;DHT22;37913;48.370;10.930;2022-08-05T13:31:46;51.10;1.00
13256;DHT22;37913;48.370;10.930;2022-08-05T13:34:13;49.20;1.00
13256;DHT22;37913;48.370;10.930;2022-08-05T13:36:40;49.00;1.00
13256;DHT22;37913;48.370;10.930;2022-08-05T13:39:09;49.40;1.00
13256;DHT22;37913;48.370;10.930;2022-08-05T13:41:38;49.90;1.00
13256;DHT22;37913;48.370;10.930;2022-08-05T13:44:05;49.70;1.00
13256;DHT22;37913;48.370;10.930;2022-08-05T13:46:32;48.40;1.00
13256;DHT22;37913;48.370;10.930;2022-08-05T13:48:59;48.40;1.00
13256;DHT22;37913;48.370;10.930;2022-08-05T13:51:31;47.90;1.00
13256;DHT22;37913;48.370;10.930;2022-08-05T13:53:58;48.00;1.00
13256;DHT22;37913;48.370;10.930;2022-08-05T13:56:26;47.10;1.00
13256;DHT22;37913;48.370;10.930;2022-08-05T13:58:53;45.70;1.00
13256;DHT22;37913;48.370;10.930;2022-08-05T14:01:21;43.70;1.00
13256;DHT22;37913;48.370;10.930;2022-08-05T14:03:48;42.60;1.00
13256;DHT22;37913;48.370;10.930;2022-08-05T14:06:29;39.70;1.00
13256;DHT22;37913;48.370;10.930;2022-08-05T14:08:57;37.60;1.00
13256;DHT22;37913;48.370;10.930;2022-08-05T14:11:26;37.00;1.00
13256;DHT22;37913;48.370;10.930;2022-08-05T14:13:54;36.00;1.00
13256;DHT22;37913;48.370;10.930;2022-08-05T14:16:22;35.50;1.00
13256;DHT22;37913;48.370;10.930;2022-08-05T14:18:49;36.10;1.00
13256;DHT22;37913;48.370;10.930;2022-08-05T14:21:16;36.70;1.00
13256;DHT22;37913;48.370;10.930;2022-08-05T14:23:43;36.60;1.00
13256;DHT22;37913;48.370;10.930;2022-08-05T14:26:10;36.70;1.00
13256;DHT22;37913;48.370;10.930;2022-08-05T14:28:39;37.10;1.00
13256;DHT22;37913;48.370;10.930;2022-08-05T14:31:06;37.10;1.00
13256;DHT22;37913;48.370;10.930;2022-08-05T14:33:33;37.10;1.00
13256;DHT22;37913;48.370;10.930;2022-08-05T14:36:01;37.00;1.00
13256;DHT22;37913;48.370;10.930;2022-08-05T14:38:28;36.30;1.00
13256;DHT22;37913;48.370;10.930;2022-08-05T14:40:55;35.90;1.00
13256;DHT22;37913;48.370;10.930;2022-08-05T14:43:22;35.90;1.00
13256;DHT22;37913;48.370;10.930;2022-08-05T14:45:50;35.60;1.00
13256;DHT22;37913;48.370;10.930;2022-08-05T14:48:18;35.30;1.00
13256;DHT22;37913;48.370;10.930;2022-08-05T14:50:45;35.30;1.00
13256;DHT22;37913;48.370;10.930;2022-08-05T14:53:12;35.20;1.00
13256;DHT22;37913;48.370;10.930;2022-08-05T14:55:39;34.90;1.00
13256;DHT22;37913;48.370;10.930;2022-08-05T14:58:07;34.70;1.00
13256;DHT22;37913;48.370;10.930;2022-08-05T15:00:35;34.20;1.00
13256;DHT22;37913;48.370;10.930;2022-08-05T15:03:04;33.80;1.00
13256;DHT22;37913;48.370;10.930;2022-08-05T15:05:32;33.70;1.00
13256;DHT22;37913;48.370;10.930;2022-08-05T15:07:59;33.60;1.00
13256;DHT22;37913;48.370;10.930;2022-08-05T15:10:27;33.50;1.00
13256;DHT22;37913;48.370;10.930;2022-08-05T15:12:54;33.60;1.00
13256;DHT22;37913;48.370;10.930;2022-08-05T15:15:21;33.80;1.00
13256;DHT22;37913;48.370;10.930;2022-08-05T15:17:48;33.90;1.00
13256;DHT22;37913;48.370;10.930;2022-08-05T15:20:16;33.60;1.00
13256;DHT22;37913;48.370;10.930;2022-08-05T15:22:43;33.60;1.00
13256;DHT22;37913;48.370;10.930;2022-08-05T15:25:10;33.50;1.00
13256;DHT22;37913;48.370;10.930;2022-08-05T15:27:37;33.50;1.00
13256;DHT22;37913;48.370;10.930;2022-08-05T15:30:05;33.40;1.00
13256;DHT22;37913;48.370;10.930;2022-08-05T15:32:32;33.10;1.00
13256;DHT22;37913;48.370;10.930;2022-08-05T15:34:59;33.30;1.00
13256;DHT22;37913;48.370;10.930;2022-08-05T15:37:28;33.30;1.00
13256;DHT22;37913;48.370;10.930;2022-08-05T15:39:55;33.40;1.00
13256;DHT22;37913;48.370;10.930;2022-08-05T15:42:22;33.60;1.00
13256;DHT22;37913;48.370;10.930;2022-08-05T15:44:49;33.50;1.00